Huvudsida
METAR-TAF:

METAR-TAF

Flygplatser :

Annecy, Frankrike

latitud: 45-55-45N, longitud: 006-05-56E, höjd: 463 m

Aktuellt väderrapport

Denna rapport gjordes för 39 minuter sedan, klockan 04:30 UTC
Vind 5 kt från ost/nordost, varierande mellan nord/nordost och ost
Temperatur 4°C
Fuktighet 93%
Tryck 1011 hPa
Sikt 10 km eller mer
Inga moln under 1 500 m eller inga cumulonimbus

METAR: LFLP 160430Z AUTO 06005KT 020V080 CAVOK 04/03 Q1011 NOSIG

Tid: 06:09 (05:09 UTC)

Väderprognos

Denna rapport gjordes för 3 timmar och 9 minuter sedan, klockan 02:00 UTC
Prognos gäller från 16 kl. 03 UTC till 17 kl. 03 UTC
Vind 2 kt varierande vindriktning
Sikt 10 km eller mer
Inga moln under 1 500 m eller inga cumulonimbus
Sannolikhet 40% :
Temporärt
från 16 kl. 03 UTC till 16 kl. 08 UTC
Brutna moln på en höjd av 3000 ft
Temporärt
från 16 kl. 10 UTC till 16 kl. 17 UTC
Vind 10 kt från sydväst

TAF: LFLP 160200Z 1603/1703 VRB02KT CAVOK PROB40 TEMPO 1603/1608 BKN030 TEMPO 1610/1617 23010KT

Aktuella väderrapporter och prognoser från 4000 flygplatser (METAR- och TAF-rapporter).

De tillgängliga stationerna syns som gula och röda prickar på kartan.

För musen över prickarna för att se namnen på stationerna.

Klicka sedan för att få väderrapporter och prognoser.

För att ändra kartan: Klicka på de gröna knapparna med ett svart kors på för att zooma in; den gröna knappen med ett streck på för att zooma ut; eller på de gröna pilarna för angränsande kartor.


METAR-TAF: